sensor_id;sensor_type;location;lat;lon;timestamp;P1;durP1;ratioP1;P2;durP2;ratioP2
39222;SDS011;24936;46.328;11.026;2023-09-19T00:00:20;390.60;;;358.35;;
39222;SDS011;24936;46.328;11.026;2023-09-19T00:02:51;373.33;;;342.80;;
39222;SDS011;24936;46.328;11.026;2023-09-19T00:05:18;369.73;;;340.02;;
39222;SDS011;24936;46.328;11.026;2023-09-19T00:07:49;373.08;;;342.88;;
39222;SDS011;24936;46.328;11.026;2023-09-19T00:10:16;376.77;;;346.20;;
39222;SDS011;24936;46.328;11.026;2023-09-19T00:12:45;358.80;;;329.95;;
39222;SDS011;24936;46.328;11.026;2023-09-19T00:15:11;362.85;;;333.83;;
39222;SDS011;24936;46.328;11.026;2023-09-19T00:17:36;383.33;;;351.83;;
39222;SDS011;24936;46.328;11.026;2023-09-19T00:22:32;371.30;;;341.35;;
39222;SDS011;24936;46.328;11.026;2023-09-19T00:25:05;376.08;;;345.65;;
39222;SDS011;24936;46.328;11.026;2023-09-19T00:29:58;365.42;;;336.00;;
39222;SDS011;24936;46.328;11.026;2023-09-19T00:34:50;370.15;;;339.83;;
39222;SDS011;24936;46.328;11.026;2023-09-19T00:37:15;358.20;;;329.30;;
39222;SDS011;24936;46.328;11.026;2023-09-19T00:39:44;379.67;;;348.73;;
39222;SDS011;24936;46.328;11.026;2023-09-19T00:42:17;360.92;;;331.60;;
39222;SDS011;24936;46.328;11.026;2023-09-19T00:44:47;380.85;;;349.52;;
39222;SDS011;24936;46.328;11.026;2023-09-19T00:47:12;363.13;;;333.75;;
39222;SDS011;24936;46.328;11.026;2023-09-19T00:49:45;326.52;;;300.30;;
39222;SDS011;24936;46.328;11.026;2023-09-19T00:52:14;358.65;;;329.70;;
39222;SDS011;24936;46.328;11.026;2023-09-19T00:57:05;364.98;;;335.13;;
39222;SDS011;24936;46.328;11.026;2023-09-19T00:59:33;364.52;;;335.17;;
39222;SDS011;24936;46.328;11.026;2023-09-19T01:02:01;375.60;;;344.45;;
39222;SDS011;24936;46.328;11.026;2023-09-19T01:04:28;363.42;;;333.70;;
39222;SDS011;24936;46.328;11.026;2023-09-19T01:06:53;348.27;;;320.35;;
39222;SDS011;24936;46.328;11.026;2023-09-19T01:09:19;347.30;;;319.33;;
39222;SDS011;24936;46.328;11.026;2023-09-19T01:11:46;347.05;;;318.98;;
39222;SDS011;24936;46.328;11.026;2023-09-19T01:16:59;345.77;;;317.95;;
39222;SDS011;24936;46.328;11.026;2023-09-19T01:19:39;367.35;;;337.45;;
39222;SDS011;24936;46.328;11.026;2023-09-19T01:22:14;335.52;;;308.90;;
39222;SDS011;24936;46.328;11.026;2023-09-19T01:30:26;359.08;;;330.08;;
39222;SDS011;24936;46.328;11.026;2023-09-19T01:33:01;354.40;;;326.00;;
39222;SDS011;24936;46.328;11.026;2023-09-19T01:35:28;347.83;;;320.10;;
39222;SDS011;24936;46.328;11.026;2023-09-19T01:37:54;325.73;;;300.08;;
39222;SDS011;24936;46.328;11.026;2023-09-19T01:40:20;343.10;;;315.85;;
39222;SDS011;24936;46.328;11.026;2023-09-19T01:45:37;343.88;;;316.67;;
39222;SDS011;24936;46.328;11.026;2023-09-19T01:50:59;355.70;;;327.30;;
39222;SDS011;24936;46.328;11.026;2023-09-19T01:54:12;374.77;;;343.90;;
39222;SDS011;24936;46.328;11.026;2023-09-19T01:59:24;370.92;;;340.60;;
39222;SDS011;24936;46.328;11.026;2023-09-19T02:01:53;365.08;;;335.42;;
39222;SDS011;24936;46.328;11.026;2023-09-19T02:04:21;386.30;;;354.52;;
39222;SDS011;24936;46.328;11.026;2023-09-19T02:06:46;362.63;;;332.90;;
39222;SDS011;24936;46.328;11.026;2023-09-19T02:09:14;382.17;;;350.67;;
39222;SDS011;24936;46.328;11.026;2023-09-19T02:11:40;361.08;;;331.48;;
39222;SDS011;24936;46.328;11.026;2023-09-19T02:14:06;355.50;;;326.92;;
39222;SDS011;24936;46.328;11.026;2023-09-19T02:16:34;374.30;;;343.70;;
39222;SDS011;24936;46.328;11.026;2023-09-19T02:18:59;364.83;;;335.58;;
39222;SDS011;24936;46.328;11.026;2023-09-19T02:21:25;374.63;;;343.95;;
39222;SDS011;24936;46.328;11.026;2023-09-19T02:23:54;363.48;;;333.92;;
39222;SDS011;24936;46.328;11.026;2023-09-19T02:28:45;381.38;;;349.60;;
39222;SDS011;24936;46.328;11.026;2023-09-19T02:31:11;379.17;;;348.75;;
39222;SDS011;24936;46.328;11.026;2023-09-19T02:33:36;408.77;;;374.67;;
39222;SDS011;24936;46.328;11.026;2023-09-19T02:36:02;409.08;;;375.35;;
39222;SDS011;24936;46.328;11.026;2023-09-19T02:38:29;424.17;;;388.98;;
39222;SDS011;24936;46.328;11.026;2023-09-19T02:40:55;382.58;;;351.20;;
39222;SDS011;24936;46.328;11.026;2023-09-19T02:45:47;357.52;;;328.58;;
39222;SDS011;24936;46.328;11.026;2023-09-19T02:48:15;372.20;;;341.92;;
39222;SDS011;24936;46.328;11.026;2023-09-19T02:53:07;373.23;;;342.25;;
39222;SDS011;24936;46.328;11.026;2023-09-19T02:55:33;373.50;;;342.92;;
39222;SDS011;24936;46.328;11.026;2023-09-19T02:57:59;363.63;;;334.15;;
39222;SDS011;24936;46.328;11.026;2023-09-19T03:00:25;370.83;;;340.65;;
39222;SDS011;24936;46.328;11.026;2023-09-19T03:02:55;375.17;;;344.45;;
39222;SDS011;24936;46.328;11.026;2023-09-19T03:05:22;372.90;;;342.25;;
39222;SDS011;24936;46.328;11.026;2023-09-19T03:07:48;412.77;;;378.65;;
39222;SDS011;24936;46.328;11.026;2023-09-19T03:10:18;393.48;;;361.13;;
39222;SDS011;24936;46.328;11.026;2023-09-19T03:12:44;394.08;;;361.90;;
39222;SDS011;24936;46.328;11.026;2023-09-19T03:17:36;407.90;;;374.98;;
39222;SDS011;24936;46.328;11.026;2023-09-19T03:20:02;374.55;;;343.63;;
39222;SDS011;24936;46.328;11.026;2023-09-19T03:22:29;368.10;;;338.27;;
39222;SDS011;24936;46.328;11.026;2023-09-19T03:24:55;345.80;;;318.42;;
39222;SDS011;24936;46.328;11.026;2023-09-19T03:27:20;336.52;;;310.02;;
39222;SDS011;24936;46.328;11.026;2023-09-19T03:29:46;345.65;;;317.95;;
39222;SDS011;24936;46.328;11.026;2023-09-19T03:32:12;352.75;;;324.17;;
39222;SDS011;24936;46.328;11.026;2023-09-19T03:34:38;346.13;;;318.80;;
39222;SDS011;24936;46.328;11.026;2023-09-19T03:37:08;359.45;;;330.35;;
39222;SDS011;24936;46.328;11.026;2023-09-19T03:39:34;359.80;;;330.75;;
39222;SDS011;24936;46.328;11.026;2023-09-19T03:42:01;348.45;;;320.35;;
39222;SDS011;24936;46.328;11.026;2023-09-19T03:44:29;358.27;;;329.45;;
39222;SDS011;24936;46.328;11.026;2023-09-19T03:49:21;394.97;;;362.57;;
39222;SDS011;24936;46.328;11.026;2023-09-19T03:51:46;362.05;;;332.20;;
39222;SDS011;24936;46.328;11.026;2023-09-19T03:54:12;360.20;;;330.83;;
39222;SDS011;24936;46.328;11.026;2023-09-19T03:56:37;381.90;;;349.98;;
39222;SDS011;24936;46.328;11.026;2023-09-19T03:59:03;363.95;;;334.13;;
39222;SDS011;24936;46.328;11.026;2023-09-19T04:01:28;391.90;;;358.85;;
39222;SDS011;24936;46.328;11.026;2023-09-19T04:03:57;386.95;;;354.65;;
39222;SDS011;24936;46.328;11.026;2023-09-19T04:06:22;376.83;;;346.50;;
39222;SDS011;24936;46.328;11.026;2023-09-19T04:08:48;377.38;;;346.40;;
39222;SDS011;24936;46.328;11.026;2023-09-19T04:11:13;372.90;;;342.42;;
39222;SDS011;24936;46.328;11.026;2023-09-19T04:13:39;391.80;;;359.20;;
39222;SDS011;24936;46.328;11.026;2023-09-19T04:16:05;375.73;;;345.30;;
39222;SDS011;24936;46.328;11.026;2023-09-19T04:18:32;441.98;;;405.63;;
39222;SDS011;24936;46.328;11.026;2023-09-19T04:20:58;384.88;;;353.27;;
39222;SDS011;24936;46.328;11.026;2023-09-19T04:23:27;394.27;;;362.25;;
39222;SDS011;24936;46.328;11.026;2023-09-19T04:25:53;369.90;;;339.95;;
39222;SDS011;24936;46.328;11.026;2023-09-19T04:28:18;399.13;;;366.13;;
39222;SDS011;24936;46.328;11.026;2023-09-19T04:30:44;393.13;;;361.38;;
39222;SDS011;24936;46.328;11.026;2023-09-19T04:33:09;383.17;;;352.02;;
39222;SDS011;24936;46.328;11.026;2023-09-19T04:35:35;373.17;;;342.98;;
39222;SDS011;24936;46.328;11.026;2023-09-19T04:38:00;422.95;;;387.85;;
39222;SDS011;24936;46.328;11.026;2023-09-19T04:40:26;401.40;;;368.17;;
39222;SDS011;24936;46.328;11.026;2023-09-19T04:42:57;402.85;;;369.85;;
39222;SDS011;24936;46.328;11.026;2023-09-19T04:45:23;402.38;;;369.70;;
39222;SDS011;24936;46.328;11.026;2023-09-19T04:47:49;395.67;;;363.30;;
39222;SDS011;24936;46.328;11.026;2023-09-19T04:50:14;398.92;;;365.83;;
39222;SDS011;24936;46.328;11.026;2023-09-19T04:52:42;392.33;;;359.67;;
39222;SDS011;24936;46.328;11.026;2023-09-19T04:55:15;367.27;;;337.25;;
39222;SDS011;24936;46.328;11.026;2023-09-19T04:57:47;394.70;;;362.17;;
39222;SDS011;24936;46.328;11.026;2023-09-19T05:00:14;411.00;;;376.88;;
39222;SDS011;24936;46.328;11.026;2023-09-19T05:02:42;406.42;;;372.52;;
39222;SDS011;24936;46.328;11.026;2023-09-19T05:05:08;387.83;;;355.58;;
39222;SDS011;24936;46.328;11.026;2023-09-19T05:07:36;408.35;;;373.95;;
39222;SDS011;24936;46.328;11.026;2023-09-19T05:10:02;398.63;;;365.40;;
39222;SDS011;24936;46.328;11.026;2023-09-19T05:12:31;383.67;;;352.40;;
39222;SDS011;24936;46.328;11.026;2023-09-19T05:15:00;387.88;;;355.92;;
39222;SDS011;24936;46.328;11.026;2023-09-19T05:17:27;396.13;;;363.38;;
39222;SDS011;24936;46.328;11.026;2023-09-19T05:19:53;370.50;;;340.42;;
39222;SDS011;24936;46.328;11.026;2023-09-19T05:22:18;389.55;;;357.30;;
39222;SDS011;24936;46.328;11.026;2023-09-19T05:24:44;377.77;;;347.33;;
39222;SDS011;24936;46.328;11.026;2023-09-19T05:27:13;383.55;;;351.95;;
39222;SDS011;24936;46.328;11.026;2023-09-19T05:29:42;388.88;;;357.02;;
39222;SDS011;24936;46.328;11.026;2023-09-19T05:32:08;371.63;;;340.92;;
39222;SDS011;24936;46.328;11.026;2023-09-19T05:34:34;381.15;;;349.30;;
39222;SDS011;24936;46.328;11.026;2023-09-19T05:36:59;394.98;;;362.92;;
39222;SDS011;24936;46.328;11.026;2023-09-19T05:39:25;391.42;;;358.92;;
39222;SDS011;24936;46.328;11.026;2023-09-19T05:41:50;404.60;;;370.90;;
39222;SDS011;24936;46.328;11.026;2023-09-19T05:44:16;390.50;;;357.67;;
39222;SDS011;24936;46.328;11.026;2023-09-19T05:46:41;389.70;;;357.40;;
39222;SDS011;24936;46.328;11.026;2023-09-19T05:49:07;389.48;;;356.98;;
39222;SDS011;24936;46.328;11.026;2023-09-19T05:51:33;398.58;;;365.95;;
39222;SDS011;24936;46.328;11.026;2023-09-19T05:54:00;387.88;;;355.98;;
39222;SDS011;24936;46.328;11.026;2023-09-19T05:56:26;412.30;;;377.90;;
39222;SDS011;24936;46.328;11.026;2023-09-19T06:01:18;397.33;;;364.30;;
39222;SDS011;24936;46.328;11.026;2023-09-19T06:03:44;402.13;;;368.48;;
39222;SDS011;24936;46.328;11.026;2023-09-19T06:06:09;376.65;;;345.83;;
39222;SDS011;24936;46.328;11.026;2023-09-19T06:08:35;386.75;;;355.13;;
39222;SDS011;24936;46.328;11.026;2023-09-19T06:11:00;382.73;;;351.20;;
39222;SDS011;24936;46.328;11.026;2023-09-19T06:13:29;381.67;;;346.73;;
39222;SDS011;24936;46.328;11.026;2023-09-19T06:15:55;416.17;;;382.63;;
39222;SDS011;24936;46.328;11.026;2023-09-19T06:18:25;381.85;;;350.65;;
39222;SDS011;24936;46.328;11.026;2023-09-19T06:20:51;397.65;;;364.95;;
39222;SDS011;24936;46.328;11.026;2023-09-19T06:23:17;377.80;;;346.83;;
39222;SDS011;24936;46.328;11.026;2023-09-19T06:25:45;413.90;;;380.63;;
39222;SDS011;24936;46.328;11.026;2023-09-19T06:28:10;376.70;;;346.20;;
39222;SDS011;24936;46.328;11.026;2023-09-19T06:30:41;409.75;;;376.17;;
39222;SDS011;24936;46.328;11.026;2023-09-19T06:33:12;387.00;;;355.73;;
39222;SDS011;24936;46.328;11.026;2023-09-19T06:35:38;392.88;;;360.83;;
39222;SDS011;24936;46.328;11.026;2023-09-19T06:38:03;405.10;;;371.80;;
39222;SDS011;24936;46.328;11.026;2023-09-19T06:40:30;398.52;;;366.20;;
39222;SDS011;24936;46.328;11.026;2023-09-19T06:42:56;395.92;;;363.33;;
39222;SDS011;24936;46.328;11.026;2023-09-19T06:45:22;377.75;;;346.30;;
39222;SDS011;24936;46.328;11.026;2023-09-19T06:47:48;420.77;;;386.45;;
39222;SDS011;24936;46.328;11.026;2023-09-19T06:50:19;389.38;;;357.73;;
39222;SDS011;24936;46.328;11.026;2023-09-19T06:52:51;389.80;;;358.08;;
39222;SDS011;24936;46.328;11.026;2023-09-19T06:55:19;382.20;;;351.45;;
39222;SDS011;24936;46.328;11.026;2023-09-19T06:57:48;392.80;;;360.98;;
39222;SDS011;24936;46.328;11.026;2023-09-19T07:00:14;382.63;;;351.50;;
39222;SDS011;24936;46.328;11.026;2023-09-19T07:02:59;368.45;;;339.00;;
39222;SDS011;24936;46.328;11.026;2023-09-19T07:05:33;379.50;;;348.48;;
39222;SDS011;24936;46.328;11.026;2023-09-19T07:08:04;404.42;;;371.95;;
39222;SDS011;24936;46.328;11.026;2023-09-19T07:10:31;397.25;;;365.48;;
39222;SDS011;24936;46.328;11.026;2023-09-19T07:13:01;412.20;;;378.63;;
39222;SDS011;24936;46.328;11.026;2023-09-19T07:15:29;380.15;;;349.65;;
39222;SDS011;24936;46.328;11.026;2023-09-19T07:17:58;376.35;;;345.30;;
39222;SDS011;24936;46.328;11.026;2023-09-19T07:20:24;364.52;;;335.25;;
39222;SDS011;24936;46.328;11.026;2023-09-19T07:22:56;407.20;;;374.38;;
39222;SDS011;24936;46.328;11.026;2023-09-19T07:25:24;364.45;;;335.65;;
39222;SDS011;24936;46.328;11.026;2023-09-19T07:27:50;347.63;;;320.35;;
39222;SDS011;24936;46.328;11.026;2023-09-19T07:30:16;354.55;;;326.20;;
39222;SDS011;24936;46.328;11.026;2023-09-19T07:32:41;335.85;;;309.40;;
39222;SDS011;24936;46.328;11.026;2023-09-19T07:37:32;361.27;;;332.10;;
39222;SDS011;24936;46.328;11.026;2023-09-19T07:42:34;383.10;;;352.00;;
39222;SDS011;24936;46.328;11.026;2023-09-19T07:45:02;380.27;;;349.38;;
39222;SDS011;24936;46.328;11.026;2023-09-19T07:47:28;373.77;;;343.13;;
39222;SDS011;24936;46.328;11.026;2023-09-19T07:49:55;364.88;;;335.38;;
39222;SDS011;24936;46.328;11.026;2023-09-19T07:52:20;383.02;;;351.42;;
39222;SDS011;24936;46.328;11.026;2023-09-19T07:54:48;365.15;;;336.15;;
39222;SDS011;24936;46.328;11.026;2023-09-19T07:57:14;314.98;;;290.00;;
39222;SDS011;24936;46.328;11.026;2023-09-19T07:59:41;313.23;;;288.45;;
39222;SDS011;24936;46.328;11.026;2023-09-19T08:02:08;337.40;;;310.30;;
39222;SDS011;24936;46.328;11.026;2023-09-19T08:04:53;342.80;;;315.08;;
39222;SDS011;24936;46.328;11.026;2023-09-19T08:07:19;344.30;;;316.67;;
39222;SDS011;24936;46.328;11.026;2023-09-19T08:12:11;373.42;;;343.00;;
39222;SDS011;24936;46.328;11.026;2023-09-19T08:14:36;379.73;;;349.30;;
39222;SDS011;24936;46.328;11.026;2023-09-19T08:17:06;312.45;;;287.48;;
39222;SDS011;24936;46.328;11.026;2023-09-19T08:19:33;320.30;;;294.52;;
39222;SDS011;24936;46.328;11.026;2023-09-19T08:21:59;314.88;;;290.25;;
39222;SDS011;24936;46.328;11.026;2023-09-19T08:24:28;305.83;;;281.55;;
39222;SDS011;24936;46.328;11.026;2023-09-19T08:26:57;314.98;;;290.08;;
39222;SDS011;24936;46.328;11.026;2023-09-19T08:29:23;316.33;;;290.52;;
39222;SDS011;24936;46.328;11.026;2023-09-19T08:31:55;317.55;;;291.55;;
39222;SDS011;24936;46.328;11.026;2023-09-19T08:34:22;316.77;;;290.90;;
39222;SDS011;24936;46.328;11.026;2023-09-19T08:36:50;298.00;;;274.98;;
39222;SDS011;24936;46.328;11.026;2023-09-19T08:39:23;325.48;;;300.05;;
39222;SDS011;24936;46.328;11.026;2023-09-19T08:41:49;316.58;;;291.48;;
39222;SDS011;24936;46.328;11.026;2023-09-19T08:46:41;327.88;;;302.63;;
39222;SDS011;24936;46.328;11.026;2023-09-19T08:49:12;297.10;;;274.73;;
39222;SDS011;24936;46.328;11.026;2023-09-19T08:51:57;278.90;;;258.13;;
39222;SDS011;24936;46.328;11.026;2023-09-19T08:54:32;228.32;;;212.77;;
39222;SDS011;24936;46.328;11.026;2023-09-19T08:57:06;230.52;;;214.55;;
39222;SDS011;24936;46.328;11.026;2023-09-19T08:59:39;274.83;;;254.75;;
39222;SDS011;24936;46.328;11.026;2023-09-19T09:02:12;284.80;;;263.10;;
39222;SDS011;24936;46.328;11.026;2023-09-19T09:04:43;309.13;;;285.95;;
39222;SDS011;24936;46.328;11.026;2023-09-19T09:07:11;220.10;;;204.57;;
39222;SDS011;24936;46.328;11.026;2023-09-19T09:09:38;191.32;;;178.60;;
39222;SDS011;24936;46.328;11.026;2023-09-19T09:12:07;158.82;;;148.88;;
39222;SDS011;24936;46.328;11.026;2023-09-19T09:14:35;173.10;;;162.30;;
39222;SDS011;24936;46.328;11.026;2023-09-19T09:17:00;139.18;;;130.93;;
39222;SDS011;24936;46.328;11.026;2023-09-19T09:19:27;144.25;;;135.52;;
39222;SDS011;24936;46.328;11.026;2023-09-19T09:21:53;88.25;;;82.97;;
39222;SDS011;24936;46.328;11.026;2023-09-19T09:24:28;82.30;;;77.40;;
39222;SDS011;24936;46.328;11.026;2023-09-19T09:26:54;78.18;;;73.65;;
39222;SDS011;24936;46.328;11.026;2023-09-19T09:34:56;149.75;;;140.85;;
39222;SDS011;24936;46.328;11.026;2023-09-19T09:37:22;61.92;;;58.47;;
39222;SDS011;24936;46.328;11.026;2023-09-19T09:39:56;51.50;;;48.70;;
39222;SDS011;24936;46.328;11.026;2023-09-19T09:42:44;43.20;;;40.92;;
39222;SDS011;24936;46.328;11.026;2023-09-19T09:45:18;33.17;;;31.48;;
39222;SDS011;24936;46.328;11.026;2023-09-19T09:48:02;31.85;;;30.23;;
39222;SDS011;24936;46.328;11.026;2023-09-19T09:50:30;39.03;;;37.00;;
39222;SDS011;24936;46.328;11.026;2023-09-19T09:58:38;26.85;;;25.52;;
39222;SDS011;24936;46.328;11.026;2023-09-19T10:01:15;21.30;;;20.30;;
39222;SDS011;24936;46.328;11.026;2023-09-19T10:03:42;25.23;;;24.00;;
39222;SDS011;24936;46.328;11.026;2023-09-19T10:06:15;22.77;;;21.67;;
39222;SDS011;24936;46.328;11.026;2023-09-19T10:12:02;24.77;;;23.58;;
39222;SDS011;24936;46.328;11.026;2023-09-19T10:14:31;27.35;;;25.98;;
39222;SDS011;24936;46.328;11.026;2023-09-19T10:17:03;50.30;;;47.63;;
39222;SDS011;24936;46.328;11.026;2023-09-19T10:19:37;39.88;;;37.78;;
39222;SDS011;24936;46.328;11.026;2023-09-19T10:22:12;38.53;;;36.50;;
39222;SDS011;24936;46.328;11.026;2023-09-19T10:24:45;15.85;;;15.15;;
39222;SDS011;24936;46.328;11.026;2023-09-19T10:27:12;16.00;;;15.30;;
39222;SDS011;24936;46.328;11.026;2023-09-19T10:29:41;14.57;;;13.93;;
39222;SDS011;24936;46.328;11.026;2023-09-19T10:32:09;57.95;;;54.85;;
39222;SDS011;24936;46.328;11.026;2023-09-19T10:34:43;74.20;;;69.63;;
39222;SDS011;24936;46.328;11.026;2023-09-19T10:37:10;70.93;;;66.78;;
39222;SDS011;24936;46.328;11.026;2023-09-19T10:39:38;66.57;;;62.67;;
39222;SDS011;24936;46.328;11.026;2023-09-19T10:42:06;51.55;;;48.60;;
39222;SDS011;24936;46.328;11.026;2023-09-19T10:44:34;65.25;;;61.30;;
39222;SDS011;24936;46.328;11.026;2023-09-19T10:47:14;37.83;;;35.45;;
39222;SDS011;24936;46.328;11.026;2023-09-19T10:49:44;32.78;;;31.02;;
39222;SDS011;24936;46.328;11.026;2023-09-19T10:52:17;37.17;;;35.17;;
39222;SDS011;24936;46.328;11.026;2023-09-19T10:54:50;55.53;;;52.42;;
39222;SDS011;24936;46.328;11.026;2023-09-19T10:57:23;36.58;;;34.65;;
39222;SDS011;24936;46.328;11.026;2023-09-19T11:11:56;42.33;;;40.05;;
39222;SDS011;24936;46.328;11.026;2023-09-19T11:35:58;30.45;;;28.85;;
39222;SDS011;24936;46.328;11.026;2023-09-19T11:43:46;62.97;;;59.28;;
39222;SDS011;24936;46.328;11.026;2023-09-19T11:46:12;33.67;;;31.63;;
39222;SDS011;24936;46.328;11.026;2023-09-19T11:48:41;20.45;;;19.40;;
39222;SDS011;24936;46.328;11.026;2023-09-19T11:51:12;24.15;;;22.85;;
39222;SDS011;24936;46.328;11.026;2023-09-19T11:53:49;28.80;;;27.10;;
39222;SDS011;24936;46.328;11.026;2023-09-19T11:56:16;19.15;;;18.17;;
39222;SDS011;24936;46.328;11.026;2023-09-19T11:58:43;29.05;;;27.27;;
39222;SDS011;24936;46.328;11.026;2023-09-19T12:01:12;31.65;;;29.95;;
39222;SDS011;24936;46.328;11.026;2023-09-19T12:03:42;27.00;;;25.55;;
39222;SDS011;24936;46.328;11.026;2023-09-19T12:06:13;17.92;;;17.02;;
39222;SDS011;24936;46.328;11.026;2023-09-19T12:08:40;18.42;;;17.52;;
39222;SDS011;24936;46.328;11.026;2023-09-19T12:11:12;43.55;;;41.10;;
39222;SDS011;24936;46.328;11.026;2023-09-19T12:13:46;46.72;;;44.08;;
39222;SDS011;24936;46.328;11.026;2023-09-19T12:16:17;21.23;;;20.05;;
39222;SDS011;24936;46.328;11.026;2023-09-19T12:18:47;21.83;;;20.50;;
39222;SDS011;24936;46.328;11.026;2023-09-19T12:21:25;8.82;;;8.23;;
39222;SDS011;24936;46.328;11.026;2023-09-19T12:24:04;16.23;;;15.40;;
39222;SDS011;24936;46.328;11.026;2023-09-19T12:26:41;63.13;;;59.50;;
39222;SDS011;24936;46.328;11.026;2023-09-19T12:29:13;61.72;;;58.10;;
39222;SDS011;24936;46.328;11.026;2023-09-19T12:31:50;44.42;;;41.85;;
39222;SDS011;24936;46.328;11.026;2023-09-19T12:34:19;31.65;;;29.77;;
39222;SDS011;24936;46.328;11.026;2023-09-19T12:36:46;38.40;;;36.22;;
39222;SDS011;24936;46.328;11.026;2023-09-19T12:39:22;46.53;;;43.72;;
39222;SDS011;24936;46.328;11.026;2023-09-19T12:41:48;43.25;;;40.67;;
39222;SDS011;24936;46.328;11.026;2023-09-19T12:44:16;25.83;;;24.45;;
39222;SDS011;24936;46.328;11.026;2023-09-19T12:46:43;65.03;;;61.33;;
39222;SDS011;24936;46.328;11.026;2023-09-19T12:49:17;90.32;;;84.97;;
39222;SDS011;24936;46.328;11.026;2023-09-19T12:51:43;66.35;;;62.45;;
39222;SDS011;24936;46.328;11.026;2023-09-19T12:54:09;93.40;;;87.72;;
39222;SDS011;24936;46.328;11.026;2023-09-19T12:56:41;58.85;;;55.42;;
39222;SDS011;24936;46.328;11.026;2023-09-19T12:59:16;30.80;;;29.00;;
39222;SDS011;24936;46.328;11.026;2023-09-19T13:01:42;94.30;;;88.80;;
39222;SDS011;24936;46.328;11.026;2023-09-19T13:04:18;79.35;;;74.63;;
39222;SDS011;24936;46.328;11.026;2023-09-19T13:06:56;32.78;;;30.83;;
39222;SDS011;24936;46.328;11.026;2023-09-19T13:09:26;29.05;;;27.45;;
39222;SDS011;24936;46.328;11.026;2023-09-19T13:12:00;28.60;;;27.13;;
39222;SDS011;24936;46.328;11.026;2023-09-19T13:14:28;26.27;;;24.80;;
39222;SDS011;24936;46.328;11.026;2023-09-19T13:25:08;50.03;;;47.10;;
39222;SDS011;24936;46.328;11.026;2023-09-19T13:27:39;29.65;;;28.00;;
39222;SDS011;24936;46.328;11.026;2023-09-19T13:30:06;34.97;;;33.08;;
39222;SDS011;24936;46.328;11.026;2023-09-19T13:32:32;30.42;;;28.63;;
39222;SDS011;24936;46.328;11.026;2023-09-19T13:34:58;27.95;;;26.45;;
39222;SDS011;24936;46.328;11.026;2023-09-19T13:37:24;35.72;;;33.55;;
39222;SDS011;24936;46.328;11.026;2023-09-19T13:39:51;65.75;;;61.63;;
39222;SDS011;24936;46.328;11.026;2023-09-19T13:42:17;33.47;;;31.63;;
39222;SDS011;24936;46.328;11.026;2023-09-19T13:44:43;46.03;;;43.28;;
39222;SDS011;24936;46.328;11.026;2023-09-19T13:47:09;51.67;;;48.70;;
39222;SDS011;24936;46.328;11.026;2023-09-19T13:49:35;77.60;;;72.82;;
39222;SDS011;24936;46.328;11.026;2023-09-19T13:52:01;40.50;;;38.15;;
39222;SDS011;24936;46.328;11.026;2023-09-19T13:54:29;46.78;;;44.15;;
39222;SDS011;24936;46.328;11.026;2023-09-19T13:56:55;29.70;;;28.10;;
39222;SDS011;24936;46.328;11.026;2023-09-19T13:59:21;24.73;;;23.40;;
39222;SDS011;24936;46.328;11.026;2023-09-19T14:01:48;39.53;;;36.90;;
39222;SDS011;24936;46.328;11.026;2023-09-19T14:04:14;34.05;;;31.77;;
39222;SDS011;24936;46.328;11.026;2023-09-19T14:06:41;20.90;;;19.85;;
39222;SDS011;24936;46.328;11.026;2023-09-19T14:09:07;25.33;;;23.65;;
39222;SDS011;24936;46.328;11.026;2023-09-19T14:11:33;35.70;;;33.67;;
39222;SDS011;24936;46.328;11.026;2023-09-19T14:13:59;25.05;;;23.65;;
39222;SDS011;24936;46.328;11.026;2023-09-19T14:16:25;24.40;;;23.10;;
39222;SDS011;24936;46.328;11.026;2023-09-19T14:18:55;17.88;;;16.98;;
39222;SDS011;24936;46.328;11.026;2023-09-19T14:21:20;37.22;;;35.10;;
39222;SDS011;24936;46.328;11.026;2023-09-19T14:23:46;48.45;;;45.70;;
39222;SDS011;24936;46.328;11.026;2023-09-19T14:26:11;31.25;;;29.45;;
39222;SDS011;24936;46.328;11.026;2023-09-19T14:28:37;60.63;;;56.92;;
39222;SDS011;24936;46.328;11.026;2023-09-19T14:31:04;16.80;;;15.93;;
39222;SDS011;24936;46.328;11.026;2023-09-19T14:33:32;47.83;;;44.75;;
39222;SDS011;24936;46.328;11.026;2023-09-19T14:35:57;45.35;;;42.90;;
39222;SDS011;24936;46.328;11.026;2023-09-19T14:38:23;136.35;;;127.75;;
39222;SDS011;24936;46.328;11.026;2023-09-19T14:40:48;90.22;;;85.03;;
39222;SDS011;24936;46.328;11.026;2023-09-19T14:43:15;48.35;;;45.65;;
39222;SDS011;24936;46.328;11.026;2023-09-19T14:45:41;44.72;;;41.92;;
39222;SDS011;24936;46.328;11.026;2023-09-19T14:48:06;41.60;;;39.25;;
39222;SDS011;24936;46.328;11.026;2023-09-19T14:50:32;49.72;;;46.90;;
39222;SDS011;24936;46.328;11.026;2023-09-19T14:52:58;18.55;;;17.52;;
39222;SDS011;24936;46.328;11.026;2023-09-19T14:55:26;98.20;;;92.32;;
39222;SDS011;24936;46.328;11.026;2023-09-19T14:57:54;33.75;;;31.65;;
39222;SDS011;24936;46.328;11.026;2023-09-19T15:00:22;104.60;;;98.68;;
39222;SDS011;24936;46.328;11.026;2023-09-19T15:02:48;37.83;;;35.53;;
39222;SDS011;24936;46.328;11.026;2023-09-19T15:05:15;43.60;;;40.95;;
39222;SDS011;24936;46.328;11.026;2023-09-19T15:07:41;26.23;;;24.83;;
39222;SDS011;24936;46.328;11.026;2023-09-19T15:10:07;48.53;;;45.75;;
39222;SDS011;24936;46.328;11.026;2023-09-19T15:12:34;71.35;;;67.00;;
39222;SDS011;24936;46.328;11.026;2023-09-19T15:15:02;36.00;;;34.00;;
39222;SDS011;24936;46.328;11.026;2023-09-19T15:17:30;63.10;;;59.05;;
39222;SDS011;24936;46.328;11.026;2023-09-19T15:19:56;30.60;;;28.85;;
39222;SDS011;24936;46.328;11.026;2023-09-19T15:22:21;34.22;;;32.05;;
39222;SDS011;24936;46.328;11.026;2023-09-19T15:24:47;24.83;;;23.42;;
39222;SDS011;24936;46.328;11.026;2023-09-19T15:27:13;35.90;;;33.78;;
39222;SDS011;24936;46.328;11.026;2023-09-19T15:29:38;42.15;;;39.75;;
39222;SDS011;24936;46.328;11.026;2023-09-19T15:32:04;67.70;;;63.65;;
39222;SDS011;24936;46.328;11.026;2023-09-19T15:34:29;40.97;;;38.75;;
39222;SDS011;24936;46.328;11.026;2023-09-19T15:36:55;48.25;;;45.13;;
39222;SDS011;24936;46.328;11.026;2023-09-19T15:39:21;63.70;;;60.00;;
39222;SDS011;24936;46.328;11.026;2023-09-19T15:44:31;93.68;;;88.07;;
39222;SDS011;24936;46.328;11.026;2023-09-19T15:46:57;35.95;;;33.78;;
39222;SDS011;24936;46.328;11.026;2023-09-19T15:49:23;68.72;;;64.25;;
39222;SDS011;24936;46.328;11.026;2023-09-19T15:51:49;120.70;;;113.00;;
39222;SDS011;24936;46.328;11.026;2023-09-19T15:54:14;50.80;;;47.95;;